Terminal Aerodrome Forecast
Issued by NWS Cleveland, OH

Home | Current Version | Previous Version | Graphics & Text | Print | Product List | Glossary On
Versions: 1 2 3 4 5 6 7 8 9 10 11 12 13 14 15 16 17
000
FTUS41 KCLE 150900 AAA
TAFMFD
TAF AMD
KMFD 150958Z 1510/1606 33014G20KT 2SM -SN BR OVC006
      TEMPO 1510/1512 1/2SM SN FZFG OVC003
     FM151200 32012KT 5SM -SN BR OVC012
      TEMPO 1512/1515 2SM -SHSN OVC008
     FM151500 31012G18KT 6SM -SHSN OVC025
      TEMPO 1515/1518 5SM -SHSN
     FM151800 31014G22KT P6SM SCT035 BKN050
     FM160000 31012KT P6SM SCT250
     FM160300 30003KT P6SM SKC=

USA.gov is the U.S. government's official web portal to all federal, state and local government web resources and services.